Information Last Ob Photographs Calibration Meteogram Network Table Neighbors Monthly Summaries Observation History Wind Roses Custom Wind Roses Data Calendar Satellite Cloud Product Download

Most Recent Observation

This application displays the last observation received by the IEM from this site. The time stamp is in America/Chicago timezone.

Observation Local Time19 Apr 2024, 3:35 PM
Observation UTC Time2024-04-19T20:35:00Z
Air Temp [F]46.4
Maximum Air Temperature [F]48.2
Minimum Air Temperature [F]30.2
Dew Point [F]23
Wind DirectionNW (310 degrees)
Wind Speed [knots]24
Altimeter [inches]30.15
Raw Observation/ProductKAXA 192035Z AUTO 31024G34KT 10SM FEW055 08/M05 A3015 RMK A01
Cloud Layer 1: FEW (5500 feet)

This data was provided by a JSON(P) webservice. You can find more JSON services.